Terminal Aerodrome Forecast
Issued by NWS Paducah, KY

Home | Current Version | Previous Version | Text Only | Print | Product List | Glossary On
Versions: 1 2 3 4 5 6 7 8 9 10 11 12 13 14 15 16 17 18
000
FTUS43 KPAH 210800 AAA
TAFEVV
TAF AMD
KEVV 210853Z 2109/2206 00000KT P6SM SKC
      TEMPO 2110/2112 5SM BR
     FM211400 01004KT P6SM SCT050=

USA.gov is the U.S. government's official web portal to all federal, state and local government web resources and services.